Akebono — JG5644 — position and weather

sailwx.info

Track history (hours):
 
Tides and Currents Weather Stations Pressure Air Temp Water Temp Dewpoint Dewpoint Depression Visibility Wind Speed Wind Dir Waves Ship Positions

Akebono

Last reported at 2017-Feb-26 06:17 UTC. Time now 2017-Feb-26 13:05 UTC.
Position N 35°32' E 140°03'.

Length 33 m; draft 4.4 m.

Type: Tug. MMSI: 431000233.

Date/timePositionNaut miles runAvg speedWind from/ knotsBaromVisibWave heightAir tempDewpointWater temp
2017-Feb-26 06:17N 35°32' E 140°03'1 0.5
2017-Feb-26 05:06N 35°32' E 140°03'5 5.5
2017-Feb-26 04:10N 35°28' E 139°58'0 0.1
2017-Feb-26 03:23N 35°28' E 139°58'1 0.6
2017-Feb-26 02:33N 35°29' E 139°58'2 2.1
2017-Feb-26 01:25N 35°29' E 139°55'0 0.0
2017-Feb-26 00:16N 35°29' E 139°55'3 3.9
2017-Feb-25 23:34N 35°28' E 139°58'3 0.1
2017-Feb-25 00:19N 35°30' E 140°01'0 0.0
2017-Feb-24 23:29N 35°30' E 140°01'7 0.5
2017-Feb-24 09:27N 35°35' E 140°05'6 1.6
2017-Feb-24 05:32N 35°30' E 140°01'4 0.1
2017-Feb-22 03:32N 35°33' E 139°58'2 2.0
2017-Feb-22 02:33N 35°32' E 139°56'5 1.6
2017-Feb-21 23:17N 35°30' E 140°01'10 0.7
2017-Feb-21 08:21N 35°40' E 139°59'0 0.0
2017-Feb-21 06:13N 35°40' E 139°59'0 0.4
2017-Feb-21 05:06N 35°40' E 139°58'0 0.4
2017-Feb-21 04:31N 35°40' E 139°59'  
2017-Feb-18 22:20N 35°31' E 139°58'3 3.4
2017-Feb-18 21:31N 35°29' E 140°00'2 0.2
2017-Feb-18 07:28N 35°28' E 139°58'1 1.5
2017-Feb-18 06:32N 35°29' E 139°57'2 0.3
2017-Feb-18 00:30N 35°30' E 139°58'3 2.7
2017-Feb-17 23:32N 35°33' E 139°57'5 4.4
2017-Feb-17 22:27N 35°28' E 139°58'1 1.4
2017-Feb-17 21:30N 35°29' E 139°58'11 0.8
2017-Feb-17 07:27N 35°40' E 139°60'  
Track history (hours):
 
Tides and Currents Weather Stations Pressure Air Temp Water Temp Dewpoint Dewpoint Depression Visibility Wind Speed Wind Dir Waves Ship Positions

Akebono

Last reported at 2017-Feb-26 06:17 UTC. Time now 2017-Feb-26 13:05 UTC.
Position N 35°32' E 140°03'.

Length 33 m; draft 4.4 m.

Type: Tug. MMSI: 431000233.

Date/timePositionNaut miles runAvg speedWind from/ knotsBaromVisibWave heightAir tempDewpointWater temp
2017-Feb-26 06:17N 35°32' E 140°03'1 0.5
2017-Feb-26 05:06N 35°32' E 140°03'5 5.5
2017-Feb-26 04:10N 35°28' E 139°58'0 0.1
2017-Feb-26 03:23N 35°28' E 139°58'1 0.6
2017-Feb-26 02:33N 35°29' E 139°58'2 2.1
2017-Feb-26 01:25N 35°29' E 139°55'0 0.0
2017-Feb-26 00:16N 35°29' E 139°55'3 3.9
2017-Feb-25 23:34N 35°28' E 139°58'3 0.1
2017-Feb-25 00:19N 35°30' E 140°01'0 0.0
2017-Feb-24 23:29N 35°30' E 140°01'7 0.5
2017-Feb-24 09:27N 35°35' E 140°05'6 1.6
2017-Feb-24 05:32N 35°30' E 140°01'4 0.1
2017-Feb-22 03:32N 35°33' E 139°58'2 2.0
2017-Feb-22 02:33N 35°32' E 139°56'5 1.6
2017-Feb-21 23:17N 35°30' E 140°01'10 0.7
2017-Feb-21 08:21N 35°40' E 139°59'0 0.0
2017-Feb-21 06:13N 35°40' E 139°59'0 0.4
2017-Feb-21 05:06N 35°40' E 139°58'0 0.4
2017-Feb-21 04:31N 35°40' E 139°59'  
2017-Feb-18 22:20N 35°31' E 139°58'3 3.4
2017-Feb-18 21:31N 35°29' E 140°00'2 0.2
2017-Feb-18 07:28N 35°28' E 139°58'1 1.5
2017-Feb-18 06:32N 35°29' E 139°57'2 0.3
2017-Feb-18 00:30N 35°30' E 139°58'3 2.7
2017-Feb-17 23:32N 35°33' E 139°57'5 4.4
2017-Feb-17 22:27N 35°28' E 139°58'1 1.4
2017-Feb-17 21:30N 35°29' E 139°58'11 0.8
2017-Feb-17 07:27N 35°40' E 139°60'  

Dump ship's entire track history